Time;durP1;ratioP1;P1;durP2;ratioP2;P2;SDS_P1;SDS_P2;PMS_P1;PMS_P2;Temp;Humidity;BMP_temperature;BMP_pressure;BME280_temperature;BME280_humidity;BME280_pressure;Samples;Min_cycle;Max_cycle;Signal;HPM_P1;HPM_P2
2022/01/28 00:01:22;;;;;;;13.15;2.28;;;;;;;4.29;86.95;103175.50;5073638;28;20068;-81
2022/01/28 00:03:47;;;;;;;22.57;3.10;;;;;;;4.29;87.40;103185.19;5075001;28;20067;-81
2022/01/28 00:06:13;;;;;;;11.70;2.13;;;;;;;4.31;87.78;103183.38;5074411;28;20036;-82
2022/01/28 00:08:38;;;;;;;17.00;3.25;;;;;;;4.35;87.85;103192.94;5073928;28;20028;-81
2022/01/28 00:11:03;;;;;;;26.02;2.88;;;;;;;4.37;87.86;103199.00;5073846;28;20044;-81
2022/01/28 00:13:38;;;;;;;16.48;2.45;;;;;;;4.36;87.60;103200.78;5073331;28;20035;-80
2022/01/28 00:38:00;;;;;;;23.83;3.88;;;;;;;4.51;88.83;103191.59;5073230;28;20047;-82
2022/01/28 00:40:22;;;;;;;16.73;2.80;;;;;;;4.58;88.99;103193.19;5072854;28;20049;-82
2022/01/28 00:42:47;;;;;;;19.13;2.80;;;;;;;4.59;88.85;103188.75;5072921;28;20099;-82
2022/01/28 00:45:13;;;;;;;24.48;2.97;;;;;;;4.57;88.96;103194.06;5071646;28;20036;-82
2022/01/28 00:47:38;;;;;;;21.90;2.95;;;;;;;4.61;89.04;103204.53;5073617;28;20035;-81
2022/01/28 00:50:05;;;;;;;15.50;2.20;;;;;;;4.61;89.00;103215.09;5074295;28;20032;-82
2022/01/28 00:52:30;;;;;;;20.42;3.13;;;;;;;4.58;89.22;103210.75;5073362;28;20056;-82
2022/01/28 00:54:56;;;;;;;18.35;2.55;;;;;;;4.54;89.81;103217.88;5074214;28;20060;-81
2022/01/28 00:57:21;;;;;;;14.48;2.83;;;;;;;4.55;90.37;103222.28;5073618;28;20041;-78
2022/01/28 00:59:46;;;;;;;23.92;2.85;;;;;;;4.54;90.36;103222.31;5072304;28;20036;-81
2022/01/28 01:02:12;;;;;;;21.17;3.10;;;;;;;4.52;91.24;103221.47;5072329;28;20117;-81
2022/01/28 01:04:37;;;;;;;25.15;3.00;;;;;;;4.51;91.87;103222.38;5072582;28;20028;-83
2022/01/28 01:07:03;;;;;;;17.48;3.35;;;;;;;4.46;91.77;103211.94;5072402;28;20461;-82
2022/01/28 01:09:29;;;;;;;16.27;2.63;;;;;;;4.43;92.68;103213.81;5072255;28;20476;-82
2022/01/28 01:11:54;;;;;;;28.23;3.03;;;;;;;4.38;92.95;103216.56;5074114;28;20032;-82
2022/01/28 01:14:19;;;;;;;27.85;3.13;;;;;;;4.39;94.12;103220.94;5075066;28;20024;-81
2022/01/28 01:17:02;;;;;;;22.15;3.03;;;;;;;4.40;94.45;103218.28;5076357;28;20057;-82
2022/01/28 01:19:32;;;;;;;22.48;4.25;;;;;;;4.37;94.42;103222.75;5076545;28;20032;-81
2022/01/28 01:21:59;;;;;;;23.33;3.15;;;;;;;4.39;95.19;103229.72;5075872;28;20038;-82
2022/01/28 01:24:28;;;;;;;23.05;2.97;;;;;;;4.41;95.30;103234.94;5076204;28;20067;-79
2022/01/28 01:26:53;;;;;;;19.08;2.95;;;;;;;4.46;95.14;103234.81;5075164;28;20388;-82
2022/01/28 01:29:21;;;;;;;25.35;3.05;;;;;;;4.47;95.13;103240.03;5075968;28;20086;-81
2022/01/28 01:31:47;;;;;;;24.17;3.15;;;;;;;4.47;94.79;103247.97;5076399;28;20047;-82
2022/01/28 01:34:20;;;;;;;20.52;2.47;;;;;;;4.48;95.00;103259.34;5075929;28;20381;-81
2022/01/28 01:36:46;;;;;;;25.33;2.63;;;;;;;4.48;95.00;103259.34;5073024;28;20032;-73
2022/01/28 01:39:22;;;;;;;25.00;2.85;;;;;;;4.53;95.22;103268.88;5071682;28;20053;-73
2022/01/28 01:42:12;;;;;;;23.35;3.40;;;;;;;4.59;95.25;103276.63;5072207;28;20327;-72
2022/01/28 01:45:17;;;;;;;24.85;3.25;;;;;;;4.67;95.13;103263.25;5073186;28;20045;-74
2022/01/28 01:53:01;;;;;;;23.05;2.20;;;;;;;4.78;93.87;103297.25;5071963;28;20087;-73
2022/01/28 01:55:26;;;;;;;13.35;1.60;;;;;;;4.54;95.00;103301.41;5071553;28;20116;-73
2022/01/28 01:57:53;;;;;;;15.73;1.90;;;;;;;4.34;95.97;103301.91;5072729;28;20043;-72
2022/01/28 02:00:18;;;;;;;18.15;2.80;;;;;;;4.15;96.93;103301.47;5072672;28;20086;-71
2022/01/28 02:02:44;;;;;;;6.75;1.35;;;;;;;3.95;96.81;103297.56;5070798;28;20440;-72
2022/01/28 02:05:09;;;;;;;12.40;2.45;;;;;;;3.85;97.23;103289.00;5072820;28;20073;-73
2022/01/28 02:07:35;;;;;;;12.77;2.20;;;;;;;3.80;98.26;103290.88;5072558;28;20029;-75
2022/01/28 02:10:00;;;;;;;18.02;2.40;;;;;;;3.74;98.77;103284.88;5072796;28;20024;-73
2022/01/28 02:12:26;;;;;;;15.52;2.25;;;;;;;3.61;98.83;103292.19;5072854;28;20083;-74
2022/01/28 02:14:51;;;;;;;15.85;1.70;;;;;;;3.52;99.45;103294.13;5072886;28;20046;-74
2022/01/28 02:17:16;;;;;;;13.77;1.80;;;;;;;3.42;99.86;103289.06;5071887;28;20437;-74
2022/01/28 02:19:42;;;;;;;18.77;3.58;;;;;;;3.34;100.00;103278.72;5072218;28;20040;-74
2022/01/28 02:22:08;;;;;;;20.33;3.13;;;;;;;3.38;100.00;103284.78;5073133;28;20321;-74
2022/01/28 02:24:40;;;;;;;22.52;2.40;;;;;;;3.33;100.00;103293.66;5072072;28;20036;-75
2022/01/28 02:27:06;;;;;;;17.65;2.75;;;;;;;3.31;100.00;103291.94;5072791;28;20040;-74
2022/01/28 02:29:34;;;;;;;30.00;3.13;;;;;;;3.38;100.00;103290.06;5072370;28;20028;-74
2022/01/28 02:32:02;;;;;;;27.75;5.93;;;;;;;3.39;100.00;103303.19;5072379;28;20036;-75
2022/01/28 02:34:28;;;;;;;30.25;3.30;;;;;;;3.43;100.00;103302.19;5072398;28;20037;-74
2022/01/28 02:36:55;;;;;;;21.85;2.83;;;;;;;3.44;100.00;103305.72;5071211;28;20424;-75
2022/01/28 02:39:21;;;;;;;23.17;2.85;;;;;;;3.45;100.00;103303.06;5072367;28;20040;-74
2022/01/28 02:41:50;;;;;;;24.65;3.35;;;;;;;3.51;100.00;103302.06;5072202;28;20034;-75
2022/01/28 02:44:42;;;;;;;27.52;2.67;;;;;;;3.51;100.00;103302.91;5070519;28;20035;-74
2022/01/28 02:47:12;;;;;;;26.33;3.30;;;;;;;3.56;100.00;103302.81;5072573;28;20039;-75
2022/01/28 02:49:38;;;;;;;38.28;3.40;;;;;;;3.55;100.00;103308.13;5072445;28;20107;-74
2022/01/28 02:52:04;;;;;;;32.55;3.83;;;;;;;3.56;100.00;103304.59;5072422;28;20090;-73
2022/01/28 02:54:32;;;;;;;29.13;3.35;;;;;;;3.55;100.00;103311.59;5071966;28;20058;-73
2022/01/28 02:57:03;;;;;;;25.48;4.35;;;;;;;3.53;100.00;103318.69;5072316;28;20055;-73
2022/01/28 02:59:28;;;;;;;25.65;2.78;;;;;;;3.48;100.00;103312.66;5072419;28;20418;-73
2022/01/28 03:01:53;;;;;;;18.50;2.97;;;;;;;3.45;100.00;103312.69;5072077;28;20053;-74
2022/01/28 03:07:04;;;;;;;24.50;2.97;;;;;;;3.41;100.00;103316.31;5071975;28;20443;-74
2022/01/28 03:09:48;;;;;;;16.88;2.22;;;;;;;3.41;100.00;103335.59;5071628;28;20094;-74
2022/01/28 03:12:17;;;;;;;28.60;2.80;;;;;;;3.37;100.00;103341.81;5071628;28;20437;-74
2022/01/28 03:15:05;;;;;;;24.33;3.00;;;;;;;3.31;100.00;103334.94;5070101;28;20028;-74
2022/01/28 03:20:31;;;;;;;18.45;2.17;;;;;;;3.32;100.00;103338.41;5071458;28;20052;-74
2022/01/28 03:22:51;;;;;;;13.35;2.20;;;;;;;3.31;100.00;103332.31;5069876;28;20104;-74
2022/01/28 03:25:16;;;;;;;21.90;2.70;;;;;;;3.29;100.00;103326.19;5071076;28;20127;-74
2022/01/28 03:27:57;;;;;;;19.20;3.40;;;;;;;3.27;100.00;103324.47;5069895;28;20055;-75
2022/01/28 03:30:23;;;;;;;17.88;2.65;;;;;;;3.25;100.00;103327.13;5071834;28;20531;-74
2022/01/28 03:32:49;;;;;;;25.67;3.10;;;;;;;3.24;99.78;103329.78;5071153;28;20037;-74
2022/01/28 03:35:15;;;;;;;19.23;2.88;;;;;;;3.23;99.52;103322.81;5069446;28;20041;-74
2022/01/28 03:37:40;;;;;;;22.08;2.45;;;;;;;3.22;99.41;103337.72;5071260;28;20032;-74
2022/01/28 03:40:07;;;;;;;21.23;2.45;;;;;;;3.18;99.28;103339.56;5071076;28;20037;-76
2022/01/28 03:42:33;;;;;;;25.35;3.05;;;;;;;3.18;99.16;103347.44;5071282;28;20052;-75
2022/01/28 03:44:59;;;;;;;13.15;2.78;;;;;;;3.16;98.91;103341.38;5071124;28;20035;-75
2022/01/28 03:47:24;;;;;;;15.60;2.05;;;;;;;3.11;98.85;103343.19;5070640;28;20036;-74
2022/01/28 03:49:50;;;;;;;21.58;2.33;;;;;;;3.09;98.90;103338.84;5071026;28;20036;-74
2022/01/28 03:52:15;;;;;;;19.83;1.80;;;;;;;3.03;98.94;103354.75;5070746;28;20465;-76
2022/01/28 03:54:41;;;;;;;19.75;2.33;;;;;;;2.93;98.97;103354.06;5070833;28;20036;-75
2022/01/28 03:57:07;;;;;;;24.60;2.55;;;;;;;2.90;99.41;103351.50;5070955;28;20085;-74
2022/01/28 03:59:33;;;;;;;18.60;2.28;;;;;;;2.87;99.38;103355.03;5070798;28;20080;-75
2022/01/28 04:01:59;;;;;;;20.20;2.65;;;;;;;2.86;99.87;103352.44;5070581;28;20048;-75
2022/01/28 04:12:20;;;;;;;22.95;2.33;;;;;;;2.77;99.80;103353.47;5070559;28;20044;-75
2022/01/28 04:15:18;;;;;;;18.13;2.65;;;;;;;2.80;100.00;103350.78;5069426;28;20111;-74
2022/01/28 04:17:34;;;;;;;19.35;3.15;;;;;;;2.81;100.00;103348.13;5070254;28;20040;-73
2022/01/28 04:19:59;;;;;;;27.15;4.20;;;;;;;2.86;100.00;103369.06;5070724;28;20081;-74
2022/01/28 04:22:25;;;;;;;20.83;2.70;;;;;;;2.90;99.74;103365.50;5070839;28;20043;-74
2022/01/28 04:24:51;;;;;;;18.38;2.10;;;;;;;2.91;99.33;103362.00;5070543;28;20078;-75
2022/01/28 04:27:17;;;;;;;14.13;2.42;;;;;;;2.90;98.67;103365.50;5070868;28;20041;-74
2022/01/28 04:29:42;;;;;;;20.67;2.35;;;;;;;2.86;98.46;103365.59;5071263;28;20359;-74
2022/01/28 04:32:09;;;;;;;26.38;4.10;;;;;;;2.87;98.13;103370.81;5068885;28;20033;-76
2022/01/28 04:34:34;;;;;;;19.95;2.83;;;;;;;2.89;98.02;103370.78;5071027;28;20137;-74
2022/01/28 04:40:11;;;;;;;23.23;2.58;;;;;;;2.93;97.37;103378.59;5069117;28;20357;-74
2022/01/28 04:45:25;;;;;;;15.93;2.30;;;;;;;2.93;97.56;103383.88;5070389;28;20470;-75
2022/01/28 05:01:22;;;;;;;13.00;2.67;;;;;;;2.91;97.16;103384.78;5073892;28;20143;-76
2022/01/28 05:04:02;;;;;;;18.77;3.13;;;;;;;2.86;97.43;103390.13;5072305;28;20048;-76
2022/01/28 05:23:19;;;;;;;16.73;2.55;;;;;;;2.59;98.58;103400.19;5073650;28;20436;-76
2022/01/28 05:28:13;;;;;;;23.70;3.00;;;;;;;2.34;99.09;103415.47;5074375;28;20053;-76
2022/01/28 05:30:38;;;;;;;11.32;1.92;;;;;;;2.24;98.86;103412.13;5074194;28;20107;-75
2022/01/28 05:33:03;;;;;;;20.02;2.30;;;;;;;2.24;99.31;103403.34;5072009;28;20059;-76
2022/01/28 05:35:30;;;;;;;12.25;1.85;;;;;;;2.21;99.92;103420.06;5071779;28;20075;-75
2022/01/28 05:37:55;;;;;;;22.77;2.33;;;;;;;2.24;100.00;103420.00;5073226;28;20460;-74
2022/01/28 05:40:21;;;;;;;20.60;1.98;;;;;;;2.28;100.00;103426.97;5073070;28;20039;-74
2022/01/28 05:42:46;;;;;;;20.75;3.33;;;;;;;2.33;100.00;103421.63;5072814;28;20350;-75
2022/01/28 05:45:13;;;;;;;24.75;2.78;;;;;;;2.29;100.00;103417.31;5071679;28;20040;-75
2022/01/28 05:47:38;;;;;;;14.85;1.90;;;;;;;2.19;99.93;103407.81;5072679;28;20041;-74
2022/01/28 05:50:04;;;;;;;13.80;1.92;;;;;;;2.14;99.92;103414.91;5072861;28;20039;-75
2022/01/28 05:52:31;;;;;;;19.98;3.22;;;;;;;2.13;100.00;103427.16;5073334;28;20051;-75
2022/01/28 05:54:57;;;;;;;19.85;2.00;;;;;;;2.11;100.00;103427.19;5072873;28;20044;-75
2022/01/28 05:57:22;;;;;;;15.63;1.95;;;;;;;2.15;100.00;103435.00;5072654;28;20386;-74
2022/01/28 05:59:47;;;;;;;17.70;2.85;;;;;;;2.11;100.00;103435.06;5071884;28;20043;-75
2022/01/28 06:02:13;;;;;;;16.33;2.45;;;;;;;2.13;100.00;103442.06;5072194;28;20127;-74
2022/01/28 06:04:39;;;;;;;26.65;2.55;;;;;;;2.17;100.00;103447.25;5072707;28;20386;-75
2022/01/28 06:07:05;;;;;;;27.23;2.78;;;;;;;2.26;100.00;103456.75;5072603;28;20129;-75
2022/01/28 06:09:30;;;;;;;17.55;2.30;;;;;;;2.26;100.00;103447.13;5072409;28;20120;-74
2022/01/28 06:11:55;;;;;;;13.70;2.92;;;;;;;2.26;100.00;103456.75;5072493;28;20147;-75
2022/01/28 06:14:21;;;;;;;13.75;2.45;;;;;;;2.26;100.00;103451.50;5072193;28;20040;-75
2022/01/28 06:16:46;;;;;;;15.90;3.03;;;;;;;2.21;100.00;103455.94;5070743;28;20048;-74
2022/01/28 06:19:11;;;;;;;18.20;2.25;;;;;;;2.18;100.00;103455.97;5072691;28;20482;-75
2022/01/28 06:21:37;;;;;;;15.85;2.20;;;;;;;2.14;100.00;103463.06;5072361;28;20080;-74
2022/01/28 06:24:02;;;;;;;15.57;1.88;;;;;;;2.10;100.00;103470.09;5072185;28;20218;-73
2022/01/28 06:26:28;;;;;;;20.13;2.72;;;;;;;2.07;100.00;103469.28;5072434;28;20047;-76
2022/01/28 06:28:53;;;;;;;23.65;3.00;;;;;;;1.98;99.82;103465.00;5072245;28;20329;-75
2022/01/28 06:31:19;;;;;;;22.00;3.13;;;;;;;1.91;100.00;103465.94;5072065;28;20085;-75
2022/01/28 06:33:44;;;;;;;26.48;2.70;;;;;;;1.84;100.00;103480.06;5070778;28;20046;-75
2022/01/28 06:36:10;;;;;;;25.35;3.00;;;;;;;1.76;100.00;103481.00;5072008;28;20103;-76
2022/01/28 06:38:35;;;;;;;18.75;2.20;;;;;;;1.77;100.00;103484.50;5072081;28;20128;-75
2022/01/28 06:41:01;;;;;;;19.40;2.42;;;;;;;1.74;100.00;103490.66;5071978;28;20063;-77
2022/01/28 06:43:26;;;;;;;13.40;2.63;;;;;;;1.71;100.00;103490.69;5072027;28;20352;-76
2022/01/28 06:45:51;;;;;;;17.55;3.25;;;;;;;1.65;100.00;103497.75;5071740;28;20044;-74
2022/01/28 06:48:18;;;;;;;14.77;1.92;;;;;;;1.59;100.00;103510.06;5071699;28;20576;-74
2022/01/28 06:50:45;;;;;;;13.60;2.35;;;;;;;1.59;100.00;103510.06;5071414;28;20036;-75
2022/01/28 06:53:12;;;;;;;20.35;3.63;;;;;;;1.53;100.00;103509.25;5072233;28;20451;-75
2022/01/28 06:55:38;;;;;;;18.23;2.08;;;;;;;1.46;100.00;103508.44;5071615;28;20046;-75
2022/01/28 06:58:05;;;;;;;17.13;1.95;;;;;;;1.40;100.00;103511.13;5071753;28;20117;-74
2022/01/28 07:00:37;;;;;;;16.33;2.40;;;;;;;1.36;100.00;103523.41;5071429;28;20039;-75
2022/01/28 07:03:10;;;;;;;18.00;2.22;;;;;;;1.40;100.00;103532.09;5071438;28;20441;-75
2022/01/28 07:05:35;;;;;;;25.38;3.13;;;;;;;1.42;100.00;103519.88;5070176;28;20420;-76
2022/01/28 07:08:02;;;;;;;17.63;3.58;;;;;;;1.36;100.00;103531.28;5071460;28;20036;-76
2022/01/28 07:10:28;;;;;;;14.38;3.03;;;;;;;1.29;100.00;103532.22;5069214;28;20150;-77
2022/01/28 07:12:54;;;;;;;18.05;2.70;;;;;;;1.22;100.00;103531.41;5071380;28;20028;-75
2022/01/28 07:15:25;;;;;;;12.02;2.92;;;;;;;1.13;100.00;103530.59;5069535;28;20341;-76
2022/01/28 07:17:54;;;;;;;22.60;3.28;;;;;;;1.03;100.00;103532.41;5071158;28;20055;-75
2022/01/28 07:20:20;;;;;;;18.13;2.75;;;;;;;0.95;99.86;103527.22;5071126;28;20051;-75
2022/01/28 07:22:46;;;;;;;7.78;1.67;;;;;;;0.88;99.76;103534.25;5071203;28;20484;-76
2022/01/28 07:25:11;;;;;;;16.90;2.90;;;;;;;0.85;100.00;103536.00;5071189;28;20028;-75
2022/01/28 07:27:36;;;;;;;17.08;2.40;;;;;;;0.84;100.00;103535.16;5071196;28;20365;-76
2022/01/28 07:30:03;;;;;;;13.18;2.15;;;;;;;0.85;100.00;103541.25;5070728;28;20029;-74
2022/01/28 07:32:28;;;;;;;15.32;2.80;;;;;;;0.82;100.00;103536.03;5070598;28;20032;-74
2022/01/28 07:34:53;;;;;;;25.45;3.15;;;;;;;0.75;100.00;103542.19;5071194;28;20575;-76
2022/01/28 07:37:19;;;;;;;17.63;2.78;;;;;;;0.68;100.00;103552.72;5069467;28;20419;-76
2022/01/28 07:39:45;;;;;;;16.40;2.25;;;;;;;0.66;100.00;103551.00;5069446;28;20043;-76
2022/01/28 07:42:11;;;;;;;14.27;2.78;;;;;;;0.63;100.00;103554.50;5070918;28;20121;-76
2022/01/28 07:44:36;;;;;;;16.23;3.45;;;;;;;0.59;100.00;103557.16;5070553;28;20052;-74
2022/01/28 07:47:03;;;;;;;16.25;2.60;;;;;;;0.58;100.00;103556.25;5069474;28;20032;-75
2022/01/28 07:49:29;;;;;;;17.27;2.92;;;;;;;0.59;100.00;103559.78;5069144;28;20082;-74
2022/01/28 07:51:54;;;;;;;17.95;3.20;;;;;;;0.60;100.00;103567.63;5070641;28;20032;-75
2022/01/28 07:54:20;;;;;;;12.23;2.28;;;;;;;0.61;100.00;103572.00;5070666;28;20374;-75
2022/01/28 07:56:47;;;;;;;10.90;2.50;;;;;;;0.63;100.00;103570.22;5070376;28;20025;-76
2022/01/28 07:59:13;;;;;;;19.02;3.33;;;;;;;0.66;100.00;103575.44;5069510;28;20041;-77
2022/01/28 08:01:38;;;;;;;14.30;2.83;;;;;;;0.75;100.00;103584.13;5070346;28;20462;-75
2022/01/28 08:04:04;;;;;;;20.88;2.95;;;;;;;0.89;100.00;103579.69;5070418;28;20086;-76
2022/01/28 08:06:30;;;;;;;21.80;3.92;;;;;;;1.09;100.00;103581.31;5070527;28;20029;-76
2022/01/28 08:08:58;;;;;;;20.42;2.75;;;;;;;1.25;100.00;103577.69;5070553;28;20063;-77
2022/01/28 08:11:24;;;;;;;19.25;2.53;;;;;;;1.42;100.00;103582.84;5069343;28;20040;-75
2022/01/28 08:13:49;;;;;;;17.90;2.53;;;;;;;1.57;100.00;103585.31;5070590;28;20032;-75
2022/01/28 08:16:14;;;;;;;31.50;2.95;;;;;;;1.76;100.00;103588.66;5070388;28;20082;-76
2022/01/28 08:18:40;;;;;;;14.65;2.47;;;;;;;1.99;100.00;103587.56;5070298;28;20372;-77
2022/01/28 08:21:05;;;;;;;11.82;3.03;;;;;;;2.23;100.00;103602.16;5070617;28;20139;-76
2022/01/28 08:23:31;;;;;;;26.20;3.05;;;;;;;2.37;100.00;103595.88;5074801;28;20120;-76
2022/01/28 08:25:56;;;;;;;19.38;3.17;;;;;;;2.50;100.00;103608.00;5074353;28;20040;-76
2022/01/28 08:28:22;;;;;;;21.60;2.50;;;;;;;2.63;100.00;103596.44;5074373;28;20031;-74
2022/01/28 08:30:47;;;;;;;17.48;2.90;;;;;;;2.85;100.00;103608.41;5074325;28;20033;-72
2022/01/28 08:33:12;;;;;;;17.52;3.40;;;;;;;3.04;100.00;103612.53;5074084;28;20059;-74
2022/01/28 08:35:39;;;;;;;23.40;3.25;;;;;;;3.20;100.00;103607.06;5073853;28;20119;-75
2022/01/28 08:38:14;;;;;;;18.00;3.38;;;;;;;3.39;100.00;103605.88;5074352;28;20040;-78
2022/01/28 08:40:40;;;;;;;19.42;2.85;;;;;;;3.65;100.00;103617.72;5074731;28;20035;-74
2022/01/28 08:43:05;;;;;;;23.40;3.13;;;;;;;3.87;100.00;103615.59;5074307;28;20075;-73
2022/01/28 08:45:31;;;;;;;27.83;3.08;;;;;;;4.05;100.00;103612.63;5073941;28;20056;-74
2022/01/28 08:47:56;;;;;;;25.35;2.80;;;;;;;4.20;99.48;103610.59;5074385;28;20033;-75
2022/01/28 08:50:22;;;;;;;17.80;2.60;;;;;;;4.29;98.50;103604.28;5073729;28;20226;-72
2022/01/28 08:52:47;;;;;;;19.50;2.50;;;;;;;4.33;96.88;103611.19;5073472;28;20116;-74
2022/01/28 08:55:14;;;;;;;21.65;2.58;;;;;;;4.34;96.33;103607.69;5072199;28;20472;-73
2022/01/28 08:57:43;;;;;;;23.65;2.60;;;;;;;4.32;95.18;103602.44;5073481;28;20183;-73
2022/01/28 09:00:13;;;;;;;18.33;2.45;;;;;;;4.40;94.88;103610.19;5073862;28;20032;-72
2022/01/28 09:02:41;;;;;;;16.27;2.38;;;;;;;4.48;95.45;103610.91;5073395;28;20430;-74
2022/01/28 09:05:06;;;;;;;17.52;2.38;;;;;;;4.55;94.70;103615.16;5074156;28;20032;-71
2022/01/28 09:07:32;;;;;;;22.30;2.65;;;;;;;4.69;94.11;103621.91;5073468;28;20449;-72
2022/01/28 09:10:03;;;;;;;17.25;3.60;;;;;;;4.82;94.26;103620.75;5071754;28;20410;-72
2022/01/28 09:14:54;;;;;;;16.40;2.22;;;;;;;5.04;91.28;103633.47;5073523;28;20093;-71
2022/01/28 09:17:21;;;;;;;24.63;2.60;;;;;;;5.11;90.10;103632.44;5072781;28;20055;-71
2022/01/28 09:19:48;;;;;;;13.05;2.00;;;;;;;5.21;90.24;103640.97;5071739;28;20036;-76
2022/01/28 09:22:13;;;;;;;15.80;2.60;;;;;;;5.32;90.13;103640.75;5071821;28;20479;-71
2022/01/28 09:24:39;;;;;;;15.60;2.17;;;;;;;5.45;88.74;103647.47;5073454;28;20116;-72
2022/01/28 09:27:05;;;;;;;11.90;2.33;;;;;;;5.64;89.52;103650.53;5073217;28;20033;-72
2022/01/28 09:29:30;;;;;;;18.70;2.25;;;;;;;5.77;88.58;103646.66;5073232;28;20033;-71
2022/01/28 09:31:55;;;;;;;18.63;2.50;;;;;;;6.04;90.60;103653.97;5073102;28;20124;-69
2022/01/28 09:34:21;;;;;;;16.13;2.08;;;;;;;6.29;87.00;103649.72;5072911;28;20025;-72
2022/01/28 09:36:46;;;;;;;20.33;2.15;;;;;;;6.52;86.63;103656.16;5073212;28;20487;-73
2022/01/28 09:39:13;;;;;;;12.20;2.20;;;;;;;6.71;86.53;103651.22;5073133;28;20092;-72
2022/01/28 09:41:39;;;;;;;16.80;2.10;;;;;;;6.77;80.68;103644.88;5073370;28;20035;-72
2022/01/28 09:44:08;;;;;;;13.50;2.40;;;;;;;6.73;79.63;103651.16;5072856;28;20066;-69
2022/01/28 09:46:34;;;;;;;14.85;2.03;;;;;;;6.75;80.85;103644.91;5072434;28;20048;-74
2022/01/28 09:49:02;;;;;;;19.58;3.20;;;;;;;6.76;82.94;103648.41;5072692;28;20051;-70
2022/01/28 09:51:27;;;;;;;20.70;2.80;;;;;;;6.74;86.16;103642.31;5073085;28;20039;-70
2022/01/28 09:53:53;;;;;;;12.07;1.70;;;;;;;6.63;81.51;103632.06;5072866;28;20070;-75
2022/01/28 09:56:18;;;;;;;25.23;3.03;;;;;;;6.64;84.65;103625.84;5072683;28;20182;-70
2022/01/28 09:58:43;;;;;;;10.18;2.00;;;;;;;6.70;82.90;103634.47;5072741;28;20055;-72
2022/01/28 10:01:09;;;;;;;12.80;2.15;;;;;;;6.80;80.39;103644.78;5072520;28;20037;-79
2022/01/28 10:03:36;;;;;;;11.07;1.77;;;;;;;6.86;79.98;103642.81;5071385;28;20514;-76
2022/01/28 10:06:01;;;;;;;13.75;2.60;;;;;;;6.94;80.50;103639.94;5072673;28;20060;-77
2022/01/28 10:08:28;;;;;;;14.70;1.92;;;;;;;7.03;79.75;103638.78;5072847;28;20464;-77
2022/01/28 10:11:14;;;;;;;9.93;1.77;;;;;;;7.02;78.63;103637.06;5072779;28;20040;-75
2022/01/28 10:13:44;;;;;;;20.15;2.58;;;;;;;6.93;78.96;103640.84;5072746;28;20082;-80
2022/01/28 10:16:19;;;;;;;15.10;2.58;;;;;;;7.01;81.37;103645.91;5072488;28;20064;-78
2022/01/28 10:19:05;;;;;;;17.52;2.22;;;;;;;7.14;78.58;103643.75;5072764;28;20048;-78
2022/01/28 10:21:43;;;;;;;11.02;2.05;;;;;;;7.26;78.93;103653.94;5072599;28;20115;-78
2022/01/28 10:24:21;;;;;;;16.17;2.20;;;;;;;7.18;76.10;103656.84;5072801;28;20041;-77
2022/01/28 10:26:56;;;;;;;13.05;2.22;;;;;;;7.18;75.32;103658.59;5072251;28;20111;-77
2022/01/28 10:29:28;;;;;;;14.93;2.67;;;;;;;7.35;74.55;103656.31;5072278;28;20101;-76
2022/01/28 10:31:54;;;;;;;;;;;;;;;7.43;74.47;103656.06;5072729;28;20028;-76
2022/01/28 10:34:33;;;;;;;12.30;2.78;;;;;;;7.75;75.62;103656.78;5071812;28;20238;-75
2022/01/28 10:37:19;;;;;;;15.55;1.98;;;;;;;8.11;73.67;103657.28;5072450;28;20123;-73
2022/01/28 10:39:49;;;;;;;12.98;2.40;;;;;;;8.58;70.93;103648.59;5072639;28;20414;-74
2022/01/28 10:42:17;;;;;;;17.80;2.42;;;;;;;8.89;71.47;103650.06;5070259;28;20036;-77
2022/01/28 10:45:13;;;;;;;10.63;2.17;;;;;;;9.37;68.58;103648.16;5071420;28;20036;-74
2022/01/28 10:47:43;;;;;;;15.85;2.17;;;;;;;9.26;67.03;103650.41;5072079;28;20043;-74
2022/01/28 10:50:32;;;;;;;14.13;2.50;;;;;;;8.82;69.02;103651.19;5071720;28;20039;-72
2022/01/28 10:53:15;;;;;;;17.63;3.40;;;;;;;8.36;70.32;103647.59;5070226;28;20033;-71
2022/01/28 10:55:43;;;;;;;7.82;2.28;;;;;;;8.37;71.95;103641.38;5070152;28;20032;-72
2022/01/28 10:58:11;;;;;;;13.77;2.28;;;;;;;9.51;68.57;103644.97;5071549;28;20032;-74
2022/01/28 11:00:42;;;;;;;13.63;2.70;;;;;;;10.47;65.06;103640.84;5071580;28;20061;-71
2022/01/28 11:03:10;;;;;;;13.05;2.55;;;;;;;11.26;61.00;103641.53;5071430;28;20070;-73
2022/01/28 11:05:37;;;;;;;12.80;2.30;;;;;;;11.15;60.01;103649.19;5071311;28;20036;-75
2022/01/28 11:08:04;;;;;;;12.25;2.58;;;;;;;11.34;59.86;103649.16;5071166;28;20042;-73
2022/01/28 11:10:31;;;;;;;13.75;2.53;;;;;;;11.23;61.47;103639.00;5070060;28;20392;-76
2022/01/28 11:12:58;;;;;;;12.82;2.38;;;;;;;11.15;60.41;103637.66;5069592;28;20183;-73
2022/01/28 11:15:24;;;;;;;12.48;2.28;;;;;;;10.66;60.53;103639.06;5071394;28;20041;-72
2022/01/28 11:17:51;;;;;;;14.07;2.85;;;;;;;9.91;62.55;103631.75;5070860;28;20032;-73
2022/01/28 11:20:22;;;;;;;17.65;2.60;;;;;;;9.29;65.94;103623.72;5071190;28;20032;-72
2022/01/28 11:23:14;;;;;;;13.60;2.30;;;;;;;8.85;67.42;103621.03;5069569;28;20043;-72
2022/01/28 11:26:12;;;;;;;12.48;2.78;;;;;;;8.53;69.51;103610.72;5070743;28;20683;-78
2022/01/28 11:28:41;;;;;;;15.27;2.40;;;;;;;8.83;69.74;103611.31;5071398;28;20036;-79
2022/01/28 11:31:07;;;;;;;13.73;2.42;;;;;;;9.12;67.38;103611.97;5070418;28;20090;-76
2022/01/28 11:33:48;;;;;;;23.88;3.25;;;;;;;9.29;67.39;103607.78;5071038;28;20028;-75
2022/01/28 11:36:14;;;;;;;15.65;2.85;;;;;;;9.44;68.49;103607.13;5069635;28;20107;-78
2022/01/28 11:38:44;;;;;;;11.48;3.03;;;;;;;9.76;65.53;103602.22;5071063;28;20047;-74
2022/01/28 11:41:13;;;;;;;15.60;2.95;;;;;;;10.11;64.17;103597.16;5070816;28;20401;-77
2022/01/28 11:43:47;;;;;;;18.13;3.22;;;;;;;10.12;65.26;103596.25;5068999;28;20052;-75
2022/01/28 11:46:17;;;;;;;17.75;2.50;;;;;;;9.83;63.30;103593.06;5070522;28;20025;-74
2022/01/28 11:48:52;;;;;;;11.95;2.30;;;;;;;9.57;64.80;103594.19;5070576;28;20032;-75
2022/01/28 11:51:38;;;;;;;16.30;3.30;;;;;;;9.38;66.12;103587.94;5070343;28;20036;-77
2022/01/28 11:54:05;;;;;;;18.85;3.03;;;;;;;9.24;66.74;103592.03;5070638;28;20076;-76
2022/01/28 11:56:31;;;;;;;13.70;2.85;;;;;;;9.21;68.06;103584.19;5069960;28;20032;-76
2022/01/28 11:59:02;;;;;;;13.32;2.60;;;;;;;9.42;68.07;103586.84;5070403;28;20037;-77
2022/01/28 12:01:39;;;;;;;15.00;2.92;;;;;;;9.43;65.41;103575.28;5069875;28;20489;-76
2022/01/28 12:04:24;;;;;;;19.13;3.72;;;;;;;9.27;66.70;103573.28;5070480;28;20029;-76
2022/01/28 12:06:58;;;;;;;19.05;2.95;;;;;;;9.03;67.71;103561.00;5070587;28;20029;-76
2022/01/28 12:09:25;;;;;;;14.88;3.13;;;;;;;8.82;68.44;103558.28;5070317;28;20024;-76
2022/01/28 12:11:51;;;;;;;14.65;3.05;;;;;;;8.89;68.12;103551.81;5069050;28;20062;-76
2022/01/28 12:14:17;;;;;;;15.77;2.88;;;;;;;9.12;68.99;103553.53;5070633;28;20036;-77
2022/01/28 12:16:46;;;;;;;12.05;2.42;;;;;;;9.37;68.94;103538.34;5070590;28;20060;-76
2022/01/28 12:19:22;;;;;;;13.73;2.78;;;;;;;9.47;68.63;103542.34;5070246;28;20059;-77
2022/01/28 12:22:10;;;;;;;16.83;3.33;;;;;;;9.20;68.81;103539.09;5069972;28;20036;-75
2022/01/28 12:24:37;;;;;;;18.13;3.25;;;;;;;9.01;69.63;103539.81;5069978;28;20365;-76
2022/01/28 12:27:13;;;;;;;18.58;3.70;;;;;;;9.11;71.20;103533.22;5068280;28;20029;-74
2022/01/28 12:29:49;;;;;;;22.55;3.30;;;;;;;9.83;67.10;103523.91;5068615;28;20033;-76
2022/01/28 12:32:21;;;;;;;15.57;3.22;;;;;;;10.77;64.80;103516.91;5070198;28;20029;-77
2022/01/28 12:34:47;;;;;;;14.05;3.58;;;;;;;11.44;63.74;103503.78;5070322;28;20036;-77
2022/01/28 12:37:13;;;;;;;16.60;3.67;;;;;;;12.08;60.12;103500.47;5070136;28;20039;-77
2022/01/28 12:39:54;;;;;;;17.48;3.33;;;;;;;12.40;59.82;103505.84;5070019;28;20060;-76
2022/01/28 12:44:51;;;;;;;12.57;2.80;;;;;;;12.15;57.54;103489.38;5068976;28;20285;-75
2022/01/28 12:47:17;;;;;;;11.77;3.00;;;;;;;11.43;57.07;103496.72;5068824;28;20024;-74
2022/01/28 12:49:43;;;;;;;10.70;2.78;;;;;;;11.08;58.39;103495.88;5070069;28;20029;-74
2022/01/28 12:52:09;;;;;;;14.50;3.08;;;;;;;11.51;59.49;103503.47;5069585;28;20119;-75